createdAt,value
2023-03-24T00:00:16.939Z,1.87
2023-03-24T00:02:45.417Z,1.60
2023-03-24T00:05:13.231Z,4.97
2023-03-24T00:07:40.200Z,4.33
2023-03-24T00:10:09.545Z,5.53
2023-03-24T00:12:38.899Z,2.57
2023-03-24T00:15:06.950Z,2.40
2023-03-24T00:17:36.082Z,2.40
2023-03-24T00:20:14.520Z,2.67
2023-03-24T00:22:49.660Z,1.97
2023-03-24T00:25:20.419Z,1.33
2023-03-24T00:27:49.007Z,3.23
2023-03-24T00:30:16.379Z,2.03
2023-03-24T00:32:43.126Z,2.90
2023-03-24T00:35:10.575Z,4.00
2023-03-24T00:37:40.390Z,3.80
2023-03-24T00:40:09.306Z,3.27
2023-03-24T00:42:36.971Z,1.70
2023-03-24T00:45:05.143Z,2.63
2023-03-24T00:47:36.877Z,2.80
2023-03-24T00:50:08.628Z,2.87
2023-03-24T00:52:35.611Z,1.60
2023-03-24T00:55:03.388Z,2.13
2023-03-24T00:57:34.713Z,4.60
2023-03-24T01:00:09.224Z,1.53
2023-03-24T01:02:35.945Z,2.23
2023-03-24T01:05:02.567Z,2.83
2023-03-24T01:07:30.238Z,1.73
2023-03-24T01:09:57.863Z,1.70
2023-03-24T01:12:25.308Z,2.17
2023-03-24T01:14:52.963Z,1.37
2023-03-24T01:17:22.361Z,1.93
2023-03-24T01:19:49.129Z,3.40
2023-03-24T01:22:16.634Z,3.80
2023-03-24T01:24:43.829Z,2.27
2023-03-24T01:27:10.657Z,1.80
2023-03-24T01:29:37.284Z,4.23
2023-03-24T01:32:04.022Z,1.97
2023-03-24T01:34:31.766Z,1.50
2023-03-24T01:36:58.385Z,2.07
2023-03-24T01:39:25.270Z,1.93
2023-03-24T01:41:51.978Z,1.70
2023-03-24T01:44:24.768Z,2.03
2023-03-24T01:46:51.497Z,1.63
2023-03-24T01:49:18.303Z,2.00
2023-03-24T01:51:46.662Z,1.60
2023-03-24T01:54:24.862Z,2.90
2023-03-24T01:56:58.129Z,1.50
2023-03-24T01:59:27.423Z,1.97
2023-03-24T02:02:10.004Z,1.90
2023-03-24T02:04:45.936Z,2.37
2023-03-24T02:07:16.077Z,1.63
2023-03-24T02:09:42.848Z,1.50
2023-03-24T02:12:09.487Z,2.63
2023-03-24T02:14:36.858Z,2.07
2023-03-24T02:17:03.479Z,1.83
2023-03-24T02:19:45.461Z,3.00
2023-03-24T02:22:31.595Z,1.60
2023-03-24T02:24:58.292Z,2.37
2023-03-24T02:27:24.894Z,1.80
2023-03-24T02:29:51.576Z,1.87
2023-03-24T02:32:38.278Z,3.97
2023-03-24T02:35:04.882Z,1.87
2023-03-24T02:37:51.181Z,2.20
2023-03-24T02:40:17.791Z,1.90
2023-03-24T02:42:47.517Z,2.63
2023-03-24T02:45:14.287Z,2.17
2023-03-24T02:48:01.202Z,2.13
2023-03-24T02:50:28.119Z,2.40
2023-03-24T02:53:21.275Z,2.50
2023-03-24T02:56:16.987Z,3.10
2023-03-24T02:58:48.764Z,2.10
2023-03-24T03:01:37.904Z,2.87
2023-03-24T03:04:46.474Z,1.87
2023-03-24T03:07:16.854Z,2.17
2023-03-24T03:09:53.507Z,2.40
2023-03-24T03:12:22.585Z,2.60
2023-03-24T03:14:56.122Z,3.00
2023-03-24T03:17:25.501Z,2.33
2023-03-24T03:19:58.202Z,1.90
2023-03-24T03:22:27.924Z,2.37
2023-03-24T03:24:56.244Z,3.07
2023-03-24T03:27:27.308Z,2.73
2023-03-24T03:29:57.483Z,3.87
2023-03-24T03:32:28.216Z,2.80
2023-03-24T03:34:54.956Z,2.93
2023-03-24T03:37:27.889Z,2.63
2023-03-24T03:39:54.583Z,2.57
2023-03-24T03:42:22.186Z,2.63
2023-03-24T03:44:48.891Z,2.53
2023-03-24T03:47:16.227Z,2.23
2023-03-24T03:49:45.303Z,2.63
2023-03-24T03:52:12.834Z,2.87
2023-03-24T03:54:40.258Z,2.93
2023-03-24T03:57:07.049Z,2.80
2023-03-24T03:59:46.596Z,3.30
2023-03-24T04:02:34.833Z,2.50
2023-03-24T04:05:10.181Z,2.73
2023-03-24T04:07:58.134Z,6.67
2023-03-24T04:10:57.155Z,2.60
2023-03-24T04:13:29.797Z,2.53
2023-03-24T04:16:26.422Z,2.93
2023-03-24T04:19:12.878Z,2.53
2023-03-24T04:21:39.423Z,3.20
2023-03-24T04:24:12.579Z,2.60
2023-03-24T04:26:54.603Z,2.83
2023-03-24T04:29:31.532Z,2.70
2023-03-24T04:32:03.426Z,2.83
2023-03-24T04:34:36.124Z,2.90
2023-03-24T04:37:16.240Z,3.27
2023-03-24T04:40:08.390Z,3.40
2023-03-24T04:42:37.356Z,3.00
2023-03-24T04:45:05.972Z,2.90
2023-03-24T04:47:58.776Z,2.97
2023-03-24T04:50:56.141Z,3.40
2023-03-24T04:53:23.944Z,4.03
2023-03-24T04:55:51.008Z,3.50
2023-03-24T04:58:35.863Z,3.50
2023-03-24T05:01:03.281Z,3.37
2023-03-24T05:03:30.939Z,4.00
2023-03-24T05:05:59.148Z,4.50
2023-03-24T05:08:25.715Z,3.33
2023-03-24T05:10:52.334Z,4.30
2023-03-24T05:13:19.017Z,3.43
2023-03-24T05:15:55.050Z,4.17
2023-03-24T05:18:30.036Z,3.47
2023-03-24T05:20:57.162Z,3.67
2023-03-24T05:23:24.829Z,3.40
2023-03-24T05:25:52.005Z,3.77
2023-03-24T05:28:21.541Z,3.93
2023-03-24T05:30:48.460Z,4.03
2023-03-24T05:33:35.381Z,3.97
2023-03-24T05:36:02.714Z,4.23
2023-03-24T05:38:29.611Z,3.20
2023-03-24T05:40:59.904Z,3.70
2023-03-24T05:43:32.377Z,4.70
2023-03-24T05:46:10.807Z,3.83
2023-03-24T05:48:37.324Z,4.50
2023-03-24T05:51:11.693Z,4.63
2023-03-24T05:53:38.478Z,3.80
2023-03-24T05:56:11.812Z,3.23
2023-03-24T05:59:11.910Z,3.10
2023-03-24T06:01:58.543Z,3.20
2023-03-24T06:04:46.635Z,3.50
2023-03-24T06:07:16.581Z,3.60
2023-03-24T06:09:47.523Z,3.53
2023-03-24T06:12:16.274Z,4.83
2023-03-24T06:14:54.677Z,5.93
2023-03-24T06:17:22.172Z,4.47
2023-03-24T06:19:51.850Z,4.67
2023-03-24T06:22:42.618Z,4.17
2023-03-24T06:25:12.535Z,4.00
2023-03-24T06:27:48.115Z,4.17
2023-03-24T06:30:19.550Z,3.87
2023-03-24T06:32:46.868Z,5.93
2023-03-24T06:35:15.361Z,7.93
2023-03-24T06:37:47.914Z,7.30
2023-03-24T06:40:17.639Z,5.87
2023-03-24T06:42:55.412Z,9.07
2023-03-24T06:45:22.007Z,6.30
2023-03-24T06:47:51.861Z,4.90
2023-03-24T06:50:18.528Z,5.33
2023-03-24T06:52:45.053Z,4.53
2023-03-24T06:55:13.573Z,3.87
2023-03-24T06:57:40.356Z,4.10
2023-03-24T07:00:33.080Z,4.03
2023-03-24T07:03:27.049Z,4.10
2023-03-24T07:06:18.372Z,3.63
2023-03-24T07:08:49.831Z,4.03
2023-03-24T07:11:16.635Z,5.27
2023-03-24T07:14:02.724Z,4.57
2023-03-24T07:16:30.603Z,3.80
2023-03-24T07:19:29.578Z,4.60
2023-03-24T07:22:19.312Z,4.27
2023-03-24T07:25:06.468Z,5.63
2023-03-24T07:27:43.061Z,3.60
2023-03-24T07:30:10.157Z,4.60
2023-03-24T07:32:43.882Z,4.27
2023-03-24T07:35:11.799Z,4.83
2023-03-24T07:37:38.935Z,4.23
2023-03-24T07:40:12.026Z,4.00
2023-03-24T07:42:39.444Z,4.50
2023-03-24T07:45:26.182Z,7.73
2023-03-24T07:47:52.813Z,4.60
2023-03-24T07:50:19.587Z,4.27
2023-03-24T07:52:50.423Z,4.00
2023-03-24T07:55:20.003Z,3.93
2023-03-24T07:58:18.725Z,6.00
2023-03-24T08:01:00.803Z,3.80
2023-03-24T08:03:37.517Z,4.50
2023-03-24T08:06:30.454Z,3.17
2023-03-24T08:08:58.665Z,3.43
2023-03-24T08:11:25.231Z,3.00
2023-03-24T08:13:51.925Z,3.83
2023-03-24T08:16:18.544Z,2.93
2023-03-24T08:18:45.143Z,3.03
2023-03-24T08:21:11.660Z,3.23
2023-03-24T08:23:38.251Z,2.93
2023-03-24T08:26:04.940Z,2.70
2023-03-24T08:28:31.522Z,3.10
2023-03-24T08:30:58.117Z,3.03
2023-03-24T08:33:25.008Z,5.07
2023-03-24T08:35:57.553Z,3.10
2023-03-24T08:38:30.610Z,2.90
2023-03-24T08:40:59.113Z,2.77
2023-03-24T08:43:26.161Z,2.67
2023-03-24T08:45:52.757Z,2.50
2023-03-24T08:48:19.347Z,2.60
2023-03-24T08:50:46.127Z,2.53
2023-03-24T08:53:13.021Z,2.43
2023-03-24T08:55:41.836Z,3.03
2023-03-24T08:58:09.678Z,3.70
2023-03-24T09:00:36.249Z,2.30
2023-03-24T09:03:03.201Z,2.43
2023-03-24T09:05:40.906Z,2.73
2023-03-24T09:08:11.544Z,2.27
2023-03-24T09:10:38.869Z,2.73
2023-03-24T09:13:05.594Z,2.33
2023-03-24T09:15:32.636Z,2.40
2023-03-24T09:17:59.174Z,2.40
2023-03-24T09:20:25.840Z,2.70
2023-03-24T09:22:52.677Z,2.93
2023-03-24T09:25:20.310Z,2.47
2023-03-24T09:27:47.372Z,2.40
2023-03-24T09:30:15.040Z,2.67
2023-03-24T09:32:41.833Z,2.50
2023-03-24T09:35:08.987Z,2.40
2023-03-24T09:37:36.472Z,2.83
2023-03-24T09:40:04.873Z,2.23
2023-03-24T09:42:36.256Z,1.93
2023-03-24T09:45:12.019Z,2.20
2023-03-24T09:47:42.095Z,3.13
2023-03-24T09:50:16.026Z,3.00
2023-03-24T09:52:44.658Z,2.83
2023-03-24T09:55:14.493Z,3.03
2023-03-24T09:57:43.486Z,2.47
2023-03-24T10:00:19.432Z,2.47
2023-03-24T10:02:46.114Z,6.20
2023-03-24T10:05:17.465Z,7.77
2023-03-24T10:07:59.696Z,2.43
2023-03-24T10:10:39.818Z,1.70
2023-03-24T10:13:08.113Z,2.17
2023-03-24T10:15:49.606Z,2.87
2023-03-24T10:18:23.578Z,3.20
2023-03-24T10:21:10.036Z,2.53
2023-03-24T10:23:42.698Z,2.33
2023-03-24T10:26:28.036Z,2.07
2023-03-24T10:28:57.326Z,2.77
2023-03-24T10:31:29.314Z,2.07
2023-03-24T10:33:56.824Z,2.70
2023-03-24T10:36:25.116Z,2.53
2023-03-24T10:38:51.790Z,1.90
2023-03-24T10:41:21.117Z,2.30
2023-03-24T10:43:48.844Z,1.87
2023-03-24T10:46:17.049Z,2.13
2023-03-24T10:48:47.732Z,1.90
2023-03-24T10:51:19.547Z,2.20
2023-03-24T10:53:49.933Z,1.90
2023-03-24T10:56:17.798Z,2.77
2023-03-24T10:58:45.792Z,1.80
2023-03-24T11:01:21.505Z,1.80
2023-03-24T11:03:49.188Z,2.90
2023-03-24T11:06:20.749Z,2.47
2023-03-24T11:08:47.728Z,2.20
2023-03-24T11:11:15.587Z,2.13
2023-03-24T11:13:42.905Z,1.90
2023-03-24T11:16:16.496Z,1.83
2023-03-24T11:18:58.965Z,1.70
2023-03-24T11:21:27.131Z,2.43
2023-03-24T11:23:53.667Z,1.70
2023-03-24T11:26:22.779Z,2.90
2023-03-24T11:28:53.853Z,2.07
2023-03-24T11:31:24.404Z,1.90
2023-03-24T11:33:56.703Z,3.57
2023-03-24T11:36:30.663Z,2.00
2023-03-24T11:39:01.335Z,1.60
2023-03-24T11:41:27.917Z,1.83
2023-03-24T11:44:12.873Z,1.93
2023-03-24T11:46:40.390Z,3.03
2023-03-24T11:49:09.089Z,1.60
2023-03-24T11:51:37.519Z,5.77
2023-03-24T11:54:06.979Z,3.23
2023-03-24T11:56:44.589Z,1.60
2023-03-24T11:59:23.263Z,1.67
2023-03-24T12:01:59.156Z,2.23
2023-03-24T12:04:37.860Z,1.70
2023-03-24T12:07:08.232Z,1.40
2023-03-24T12:09:43.742Z,1.70
2023-03-24T12:12:19.433Z,1.67
2023-03-24T12:14:51.934Z,1.33
2023-03-24T12:17:23.259Z,1.60
2023-03-24T12:19:55.993Z,1.80
2023-03-24T12:22:31.619Z,1.97
2023-03-24T12:25:01.823Z,1.70
2023-03-24T12:27:46.881Z,1.40
2023-03-24T12:30:20.832Z,1.70
2023-03-24T12:32:52.660Z,1.70
2023-03-24T12:35:19.358Z,1.53
2023-03-24T12:38:06.624Z,2.50
2023-03-24T12:40:39.110Z,1.77
2023-03-24T12:43:21.193Z,2.60
2023-03-24T12:45:52.685Z,1.30
2023-03-24T12:48:22.503Z,4.93
2023-03-24T12:51:06.541Z,3.03
2023-03-24T12:53:53.671Z,7.10
2023-03-24T12:56:41.487Z,2.93
2023-03-24T12:59:13.339Z,1.47
2023-03-24T13:01:43.531Z,2.80
2023-03-24T13:04:19.895Z,1.50
2023-03-24T13:06:56.623Z,1.20
2023-03-24T13:09:41.758Z,1.20
2023-03-24T13:12:14.356Z,1.20
2023-03-24T13:14:53.148Z,2.97
2023-03-24T13:17:26.829Z,2.83
2023-03-24T13:19:54.006Z,1.73
2023-03-24T13:22:20.773Z,1.60
2023-03-24T13:24:48.111Z,4.07
2023-03-24T13:27:29.479Z,6.00
2023-03-24T13:30:15.700Z,3.40
2023-03-24T13:32:42.254Z,2.73
2023-03-24T13:35:21.744Z,2.57
2023-03-24T13:37:51.166Z,1.73
2023-03-24T13:40:23.875Z,1.67
2023-03-24T13:42:55.071Z,1.27
2023-03-24T13:45:24.525Z,1.10
2023-03-24T13:47:57.865Z,1.70
2023-03-24T13:50:24.859Z,1.87
2023-03-24T13:52:51.817Z,1.73
2023-03-24T13:55:23.157Z,1.33
2023-03-24T13:57:57.182Z,2.73
2023-03-24T14:00:25.083Z,1.73
2023-03-24T14:02:55.596Z,1.00
2023-03-24T14:05:22.173Z,1.53
2023-03-24T14:07:49.275Z,1.90
2023-03-24T14:10:16.390Z,1.53
2023-03-24T14:12:57.988Z,3.00
2023-03-24T14:15:24.459Z,1.33
2023-03-24T14:17:54.101Z,2.00
2023-03-24T14:20:26.381Z,2.20
2023-03-24T14:22:53.190Z,1.57
2023-03-24T14:25:25.020Z,1.13
2023-03-24T14:28:06.362Z,1.40
2023-03-24T14:30:38.047Z,2.57
2023-03-24T14:33:05.173Z,1.57
2023-03-24T14:35:45.160Z,1.20
2023-03-24T14:38:14.542Z,1.73
2023-03-24T14:40:42.990Z,2.63
2023-03-24T14:43:12.799Z,1.83
2023-03-24T14:45:40.987Z,1.40
2023-03-24T14:48:20.709Z,2.57
2023-03-24T14:50:47.965Z,1.57
2023-03-24T14:53:18.831Z,1.10
2023-03-24T14:55:45.938Z,1.87
2023-03-24T14:58:20.331Z,2.23
2023-03-24T15:00:57.925Z,2.37
2023-03-24T15:03:41.986Z,1.60
2023-03-24T15:06:19.021Z,3.20
2023-03-24T15:08:48.925Z,2.07
2023-03-24T15:11:16.505Z,2.43
2023-03-24T15:13:57.365Z,4.77
2023-03-24T15:16:25.525Z,2.10
2023-03-24T15:19:01.528Z,1.57
2023-03-24T15:21:31.915Z,2.43
2023-03-24T15:23:58.826Z,1.83
2023-03-24T15:26:25.488Z,3.03
2023-03-24T15:29:02.332Z,9.83
2023-03-24T15:31:30.480Z,2.47
2023-03-24T15:34:15.957Z,5.53
2023-03-24T15:36:45.669Z,1.67
2023-03-24T15:39:19.701Z,2.00
2023-03-24T15:41:46.893Z,17.00
2023-03-24T15:44:17.665Z,3.77
2023-03-24T15:46:44.368Z,6.47
2023-03-24T15:49:18.408Z,2.50
2023-03-24T15:51:50.880Z,26.50
2023-03-24T15:54:26.436Z,3.30
2023-03-24T15:57:11.752Z,15.00
2023-03-24T15:59:42.873Z,7.47
2023-03-24T16:02:38.983Z,6.80
2023-03-24T16:05:13.251Z,3.73
2023-03-24T16:07:41.434Z,2.00
2023-03-24T16:10:24.538Z,2.67
2023-03-24T16:12:51.222Z,15.00
2023-03-24T16:15:17.738Z,3.50
2023-03-24T16:17:45.712Z,2.40
2023-03-24T16:20:19.017Z,2.40
2023-03-24T16:22:46.867Z,2.43
2023-03-24T16:25:14.475Z,3.17
2023-03-24T16:27:41.224Z,2.27
2023-03-24T16:30:26.772Z,3.30
2023-03-24T16:32:53.399Z,2.33
2023-03-24T16:35:19.938Z,3.30
2023-03-24T16:37:47.218Z,2.33
2023-03-24T16:40:20.232Z,2.60
2023-03-24T16:42:46.734Z,2.83
2023-03-24T16:45:13.323Z,2.83
2023-03-24T16:47:39.925Z,12.97
2023-03-24T16:50:24.907Z,15.30
2023-03-24T16:52:51.433Z,9.77
2023-03-24T16:55:18.004Z,8.50
2023-03-24T16:57:44.537Z,6.10
2023-03-24T17:00:11.955Z,8.30
2023-03-24T17:02:39.063Z,6.10
2023-03-24T17:05:17.721Z,4.30
2023-03-24T17:07:44.270Z,5.50
2023-03-24T17:10:10.890Z,5.43
2023-03-24T17:12:37.598Z,5.47
2023-03-24T17:15:04.637Z,2.73
2023-03-24T17:17:31.114Z,5.40
2023-03-24T17:19:58.075Z,4.73
2023-03-24T17:22:25.474Z,4.53
2023-03-24T17:24:57.683Z,2.73
2023-03-24T17:27:24.264Z,2.47
2023-03-24T17:29:50.971Z,2.97
2023-03-24T17:32:17.925Z,10.37
2023-03-24T17:34:45.436Z,10.43
2023-03-24T17:37:12.091Z,3.30
2023-03-24T17:39:39.220Z,4.67
2023-03-24T17:42:05.929Z,6.77
2023-03-24T17:44:32.770Z,2.93
2023-03-24T17:46:59.308Z,5.97
2023-03-24T17:49:26.704Z,3.90
2023-03-24T17:51:53.275Z,2.73
2023-03-24T17:54:21.176Z,16.83
2023-03-24T17:56:47.998Z,18.53
2023-03-24T17:59:14.502Z,24.80
2023-03-24T18:01:41.022Z,21.07
2023-03-24T18:04:07.899Z,11.20
2023-03-24T18:06:34.639Z,10.57
2023-03-24T18:09:01.134Z,15.67
2023-03-24T18:11:27.666Z,16.07
2023-03-24T18:13:54.178Z,30.90
2023-03-24T18:16:22.139Z,15.87
2023-03-24T18:18:49.694Z,11.27
2023-03-24T18:21:16.653Z,14.03
2023-03-24T18:23:43.248Z,14.57
2023-03-24T18:26:10.304Z,9.73
2023-03-24T18:28:37.996Z,5.87
2023-03-24T18:31:15.444Z,7.47
2023-03-24T18:33:46.258Z,11.00
2023-03-24T18:36:16.379Z,16.57
2023-03-24T18:38:43.491Z,14.07
2023-03-24T18:41:10.793Z,8.27
2023-03-24T18:43:39.440Z,11.47
2023-03-24T18:46:09.511Z,7.00
2023-03-24T18:48:36.758Z,5.90
2023-03-24T18:51:03.579Z,11.47
2023-03-24T18:53:30.391Z,6.20
2023-03-24T18:55:56.952Z,3.43
2023-03-24T18:58:24.014Z,4.00
2023-03-24T19:00:54.617Z,3.60
2023-03-24T19:03:22.564Z,6.13
2023-03-24T19:05:49.848Z,3.73
2023-03-24T19:08:16.970Z,3.10
2023-03-24T19:10:43.529Z,4.00
2023-03-24T19:13:11.746Z,5.67
2023-03-24T19:15:38.704Z,16.33
2023-03-24T19:18:05.697Z,15.17
2023-03-24T19:20:34.883Z,14.10
2023-03-24T19:23:01.447Z,17.17
2023-03-24T19:25:27.958Z,17.33
2023-03-24T19:27:54.434Z,9.77
2023-03-24T19:30:21.129Z,7.77
2023-03-24T19:32:47.964Z,9.20
2023-03-24T19:35:14.660Z,29.73
2023-03-24T19:37:41.264Z,22.00
2023-03-24T19:40:15.642Z,22.17
2023-03-24T19:42:44.781Z,28.67
2023-03-24T19:45:12.948Z,30.60
2023-03-24T19:47:39.467Z,25.33
2023-03-24T19:50:07.530Z,13.17
2023-03-24T19:52:34.557Z,14.93
2023-03-24T19:55:01.253Z,15.30
2023-03-24T19:57:30.438Z,11.50
2023-03-24T19:59:57.292Z,9.20
2023-03-24T20:02:24.735Z,8.57
2023-03-24T20:04:52.050Z,9.20
2023-03-24T20:07:18.738Z,8.43
2023-03-24T20:09:45.432Z,8.23
2023-03-24T20:12:11.974Z,6.60
2023-03-24T20:14:38.642Z,7.43
2023-03-24T20:17:05.328Z,5.23
2023-03-24T20:19:32.030Z,4.10
2023-03-24T20:21:58.548Z,7.20
2023-03-24T20:24:25.130Z,7.07
2023-03-24T20:26:51.689Z,3.63
2023-03-24T20:29:18.307Z,4.73
2023-03-24T20:31:45.169Z,3.20
2023-03-24T20:34:11.824Z,3.80
2023-03-24T20:36:38.503Z,3.77
2023-03-24T20:39:06.010Z,3.67
2023-03-24T20:41:32.761Z,3.73
2023-03-24T20:43:59.292Z,2.87
2023-03-24T20:46:26.010Z,4.40
2023-03-24T20:48:52.689Z,4.03
2023-03-24T20:51:19.290Z,4.37
2023-03-24T20:53:49.673Z,3.23
2023-03-24T20:56:16.754Z,4.23
2023-03-24T20:58:44.510Z,3.47
2023-03-24T21:01:20.545Z,3.03
2023-03-24T21:03:50.975Z,3.60
2023-03-24T21:06:18.183Z,3.20
2023-03-24T21:08:45.316Z,3.47
2023-03-24T21:11:12.030Z,3.17
2023-03-24T21:13:38.756Z,4.03
2023-03-24T21:16:09.274Z,4.53
2023-03-24T21:18:36.780Z,3.37
2023-03-24T21:21:03.838Z,3.20
2023-03-24T21:23:34.301Z,4.97
2023-03-24T21:26:01.626Z,3.07
2023-03-24T21:28:30.309Z,3.50
2023-03-24T21:31:05.694Z,3.70
2023-03-24T21:33:32.471Z,7.20
2023-03-24T21:35:59.109Z,4.67
2023-03-24T21:38:25.666Z,6.60
2023-03-24T21:40:58.660Z,4.20
2023-03-24T21:43:27.110Z,3.73
2023-03-24T21:45:54.505Z,3.50
2023-03-24T21:48:21.443Z,5.30
2023-03-24T21:50:52.310Z,4.40
2023-03-24T21:53:20.893Z,3.53
2023-03-24T21:55:52.037Z,2.80
2023-03-24T21:58:19.109Z,3.07
2023-03-24T22:00:46.746Z,3.20
2023-03-24T22:03:13.567Z,3.57
2023-03-24T22:05:40.622Z,3.13
2023-03-24T22:08:07.724Z,2.37
2023-03-24T22:10:35.335Z,2.83
2023-03-24T22:13:02.552Z,4.33
2023-03-24T22:15:31.187Z,3.57
2023-03-24T22:17:59.183Z,3.70
2023-03-24T22:20:28.286Z,2.53
2023-03-24T22:22:54.859Z,2.43
2023-03-24T22:25:21.386Z,2.17
2023-03-24T22:27:50.018Z,5.00
2023-03-24T22:30:18.253Z,2.67
2023-03-24T22:32:44.754Z,4.70
2023-03-24T22:35:11.311Z,3.60
2023-03-24T22:37:37.907Z,2.30
2023-03-24T22:40:05.749Z,5.40
2023-03-24T22:42:32.323Z,6.60
2023-03-24T22:44:58.898Z,4.17
2023-03-24T22:47:25.629Z,3.07
2023-03-24T22:49:52.156Z,4.20
2023-03-24T22:52:18.738Z,5.33
2023-03-24T22:54:45.352Z,2.60
2023-03-24T22:57:12.011Z,4.03
2023-03-24T22:59:38.598Z,3.83
2023-03-24T23:02:09.982Z,4.00
2023-03-24T23:04:37.392Z,5.07
2023-03-24T23:07:06.189Z,3.73
2023-03-24T23:09:32.755Z,3.20
2023-03-24T23:11:59.304Z,4.40
2023-03-24T23:14:26.768Z,3.20
2023-03-24T23:16:54.846Z,3.10
2023-03-24T23:19:21.924Z,2.33
2023-03-24T23:21:48.499Z,3.77
2023-03-24T23:24:15.069Z,3.47
2023-03-24T23:26:41.585Z,5.63
2023-03-24T23:29:09.598Z,3.27
2023-03-24T23:31:36.622Z,3.20
2023-03-24T23:34:07.433Z,3.80
2023-03-24T23:36:34.264Z,2.90
2023-03-24T23:39:01.131Z,3.40
2023-03-24T23:41:27.767Z,4.03
2023-03-24T23:43:54.348Z,3.90
2023-03-24T23:46:20.949Z,6.03
2023-03-24T23:48:47.640Z,3.73
2023-03-24T23:51:14.231Z,2.83
2023-03-24T23:53:40.887Z,2.50
2023-03-24T23:56:08.635Z,2.60
2023-03-24T23:58:36.514Z,2.57
